sensor_id;sensor_type;location;lat;lon;timestamp;pressure;altitude;pressure_sealevel;temperature;humidity
72061;BME280;59925;52.136;5.420;2023-03-22T00:01:27;101109.38;;;8.81;86.41
72061;BME280;59925;52.136;5.420;2023-03-22T00:03:57;101102.63;;;8.73;86.55
72061;BME280;59925;52.136;5.420;2023-03-22T00:06:24;101096.22;;;8.74;86.66
72061;BME280;59925;52.136;5.420;2023-03-22T00:08:52;101093.00;;;8.72;86.83
72061;BME280;59925;52.136;5.420;2023-03-22T00:11:20;101100.50;;;8.76;86.49
72061;BME280;59925;52.136;5.420;2023-03-22T00:13:47;101088.44;;;8.73;86.45
72061;BME280;59925;52.136;5.420;2023-03-22T00:16:18;101088.72;;;8.71;86.46
72061;BME280;59925;52.136;5.420;2023-03-22T00:18:46;101084.34;;;8.65;86.52
72061;BME280;59925;52.136;5.420;2023-03-22T00:21:14;101092.56;;;8.58;86.76
72061;BME280;59925;52.136;5.420;2023-03-22T00:23:41;101082.69;;;8.59;86.99
72061;BME280;59925;52.136;5.420;2023-03-22T00:26:10;101077.84;;;8.56;87.19
72061;BME280;59925;52.136;5.420;2023-03-22T00:28:37;101075.16;;;8.56;87.41
72061;BME280;59925;52.136;5.420;2023-03-22T00:31:04;101078.06;;;8.54;87.25
72061;BME280;59925;52.136;5.420;2023-03-22T00:33:31;101070.59;;;8.51;87.49
72061;BME280;59925;52.136;5.420;2023-03-22T00:36:00;101067.56;;;8.48;87.62
72061;BME280;59925;52.136;5.420;2023-03-22T00:38:27;101077.94;;;8.44;87.74
72061;BME280;59925;52.136;5.420;2023-03-22T00:41:12;101066.44;;;8.43;87.74
72061;BME280;59925;52.136;5.420;2023-03-22T00:43:40;101067.72;;;8.41;87.66
72061;BME280;59925;52.136;5.420;2023-03-22T00:46:07;101066.38;;;8.38;88.08
72061;BME280;59925;52.136;5.420;2023-03-22T00:48:34;101069.06;;;8.38;87.96
72061;BME280;59925;52.136;5.420;2023-03-22T00:51:01;101057.00;;;8.36;88.02
72061;BME280;59925;52.136;5.420;2023-03-22T00:53:28;101056.44;;;8.34;88.07
72061;BME280;59925;52.136;5.420;2023-03-22T00:55:58;101055.38;;;8.35;87.80
72061;BME280;59925;52.136;5.420;2023-03-22T00:58:24;101053.22;;;8.32;87.78
72061;BME280;59925;52.136;5.420;2023-03-22T01:00:51;101048.13;;;8.30;87.90
72061;BME280;59925;52.136;5.420;2023-03-22T01:03:18;101041.97;;;8.29;87.98
72061;BME280;59925;52.136;5.420;2023-03-22T01:05:48;101047.56;;;8.28;88.14
72061;BME280;59925;52.136;5.420;2023-03-22T01:08:15;101036.31;;;8.26;88.31
72061;BME280;59925;52.136;5.420;2023-03-22T01:10:43;101027.50;;;8.25;88.13
72061;BME280;59925;52.136;5.420;2023-03-22T01:13:10;101020.56;;;8.24;88.14
72061;BME280;59925;52.136;5.420;2023-03-22T01:15:37;101018.66;;;8.25;88.27
72061;BME280;59925;52.136;5.420;2023-03-22T01:18:04;101006.63;;;8.22;88.31
72061;BME280;59925;52.136;5.420;2023-03-22T01:20:30;101007.69;;;8.21;87.78
72061;BME280;59925;52.136;5.420;2023-03-22T01:22:57;101002.59;;;8.20;88.42
72061;BME280;59925;52.136;5.420;2023-03-22T01:25:24;100999.41;;;8.23;88.36
72061;BME280;59925;52.136;5.420;2023-03-22T01:27:51;101003.97;;;8.22;88.16
72061;BME280;59925;52.136;5.420;2023-03-22T01:30:17;100995.69;;;8.24;88.00
72061;BME280;59925;52.136;5.420;2023-03-22T01:32:44;100988.16;;;8.21;88.05
72061;BME280;59925;52.136;5.420;2023-03-22T01:35:11;100982.59;;;8.22;88.17
72061;BME280;59925;52.136;5.420;2023-03-22T01:37:37;100977.25;;;8.22;88.02
72061;BME280;59925;52.136;5.420;2023-03-22T01:40:04;100973.53;;;8.23;88.17
72061;BME280;59925;52.136;5.420;2023-03-22T01:42:31;100968.97;;;8.24;88.19
72061;BME280;59925;52.136;5.420;2023-03-22T01:47:44;100963.63;;;8.24;88.12
72061;BME280;59925;52.136;5.420;2023-03-22T01:50:13;100955.41;;;8.25;87.89
72061;BME280;59925;52.136;5.420;2023-03-22T01:52:40;100953.50;;;8.26;87.75
72061;BME280;59925;52.136;5.420;2023-03-22T01:55:07;100952.94;;;8.24;87.67
72061;BME280;59925;52.136;5.420;2023-03-22T01:57:35;100944.72;;;8.25;87.92
72061;BME280;59925;52.136;5.420;2023-03-22T02:00:10;100936.16;;;8.28;88.23
72061;BME280;59925;52.136;5.420;2023-03-22T02:02:45;100938.34;;;8.32;87.90
72061;BME280;59925;52.136;5.420;2023-03-22T02:05:14;100921.25;;;8.33;87.72
72061;BME280;59925;52.136;5.420;2023-03-22T02:07:41;100928.72;;;8.31;87.43
72061;BME280;59925;52.136;5.420;2023-03-22T02:10:17;100912.94;;;8.29;87.86
72061;BME280;59925;52.136;5.420;2023-03-22T02:15:42;100909.72;;;8.27;87.69
72061;BME280;59925;52.136;5.420;2023-03-22T02:35:49;100885.69;;;8.27;88.42
72061;BME280;59925;52.136;5.420;2023-03-22T02:47:01;100869.94;;;8.25;89.10
72061;BME280;59925;52.136;5.420;2023-03-22T02:49:43;100862.44;;;8.27;89.23
72061;BME280;59925;52.136;5.420;2023-03-22T02:54:54;100851.03;;;8.32;90.18
72061;BME280;59925;52.136;5.420;2023-03-22T02:57:32;100853.72;;;8.37;90.31
72061;BME280;59925;52.136;5.420;2023-03-22T03:00:04;100861.19;;;8.35;89.83
72061;BME280;59925;52.136;5.420;2023-03-22T03:02:46;100843.53;;;8.34;90.14
72061;BME280;59925;52.136;5.420;2023-03-22T03:05:15;100839.31;;;8.38;90.75
72061;BME280;59925;52.136;5.420;2023-03-22T03:07:47;100838.81;;;8.41;90.92
72061;BME280;59925;52.136;5.420;2023-03-22T03:10:16;100843.38;;;8.46;91.19
72061;BME280;59925;52.136;5.420;2023-03-22T03:12:43;100838.84;;;8.47;91.11
72061;BME280;59925;52.136;5.420;2023-03-22T03:15:16;100843.69;;;8.50;91.73
72061;BME280;59925;52.136;5.420;2023-03-22T03:28:51;100847.22;;;8.55;92.23
72061;BME280;59925;52.136;5.420;2023-03-22T03:31:44;100845.91;;;8.58;92.63
72061;BME280;59925;52.136;5.420;2023-03-22T03:34:32;100846.41;;;8.55;92.68
72061;BME280;59925;52.136;5.420;2023-03-22T03:37:06;100846.47;;;8.60;93.12
72061;BME280;59925;52.136;5.420;2023-03-22T03:39:38;100843.81;;;8.60;93.28
72061;BME280;59925;52.136;5.420;2023-03-22T03:42:06;100840.03;;;8.61;93.47
72061;BME280;59925;52.136;5.420;2023-03-22T03:44:37;100836.63;;;8.66;93.25
72061;BME280;59925;52.136;5.420;2023-03-22T03:47:05;100838.22;;;8.67;93.66
72061;BME280;59925;52.136;5.420;2023-03-22T03:49:33;100839.28;;;8.66;93.27
72061;BME280;59925;52.136;5.420;2023-03-22T03:52:00;100846.22;;;8.67;93.51
72061;BME280;59925;52.136;5.420;2023-03-22T03:54:28;100840.13;;;8.71;93.88
72061;BME280;59925;52.136;5.420;2023-03-22T03:56:55;100828.41;;;8.78;93.78
72061;BME280;59925;52.136;5.420;2023-03-22T03:59:22;100827.91;;;8.81;93.87
72061;BME280;59925;52.136;5.420;2023-03-22T04:01:48;100826.56;;;8.78;93.46
72061;BME280;59925;52.136;5.420;2023-03-22T04:04:21;100827.91;;;8.81;93.61
72061;BME280;59925;52.136;5.420;2023-03-22T04:06:59;100832.72;;;8.84;93.38
72061;BME280;59925;52.136;5.420;2023-03-22T04:09:34;100835.66;;;8.82;93.49
72061;BME280;59925;52.136;5.420;2023-03-22T04:12:01;100839.44;;;8.86;93.67
72061;BME280;59925;52.136;5.420;2023-03-22T04:14:29;100832.72;;;8.84;93.61
72061;BME280;59925;52.136;5.420;2023-03-22T04:16:55;100831.69;;;8.90;93.63
72061;BME280;59925;52.136;5.420;2023-03-22T04:19:22;100833.59;;;8.95;93.26
72061;BME280;59925;52.136;5.420;2023-03-22T04:21:48;100829.59;;;8.97;93.12
72061;BME280;59925;52.136;5.420;2023-03-22T04:24:19;100830.41;;;8.98;93.18
72061;BME280;59925;52.136;5.420;2023-03-22T04:26:47;100825.31;;;8.96;93.06
72061;BME280;59925;52.136;5.420;2023-03-22T04:29:13;100821.59;;;8.97;93.18
72061;BME280;59925;52.136;5.420;2023-03-22T04:31:41;100821.03;;;9.00;93.04
72061;BME280;59925;52.136;5.420;2023-03-22T04:34:07;100822.41;;;9.03;93.05
72061;BME280;59925;52.136;5.420;2023-03-22T04:36:36;100813.06;;;9.05;92.80
72061;BME280;59925;52.136;5.420;2023-03-22T04:39:07;100806.66;;;9.07;93.03
72061;BME280;59925;52.136;5.420;2023-03-22T04:41:34;100797.56;;;9.08;92.61
72061;BME280;59925;52.136;5.420;2023-03-22T04:44:04;100799.41;;;9.07;92.67
72061;BME280;59925;52.136;5.420;2023-03-22T04:46:34;100806.66;;;9.07;92.58
72061;BME280;59925;52.136;5.420;2023-03-22T04:49:03;100801.84;;;9.09;92.40
72061;BME280;59925;52.136;5.420;2023-03-22T04:51:30;100803.97;;;9.07;92.29
72061;BME280;59925;52.136;5.420;2023-03-22T04:53:57;100803.44;;;9.04;92.54
72061;BME280;59925;52.136;5.420;2023-03-22T04:56:24;100801.56;;;9.05;92.59
72061;BME280;59925;52.136;5.420;2023-03-22T04:58:51;100803.19;;;9.06;92.24
72061;BME280;59925;52.136;5.420;2023-03-22T05:01:17;100799.19;;;9.09;92.56
72061;BME280;59925;52.136;5.420;2023-03-22T05:03:44;100797.03;;;9.05;91.99
72061;BME280;59925;52.136;5.420;2023-03-22T05:06:13;100793.28;;;9.07;92.37
72061;BME280;59925;52.136;5.420;2023-03-22T05:08:40;100789.25;;;9.04;91.98
72061;BME280;59925;52.136;5.420;2023-03-22T05:11:09;100787.38;;;9.04;92.24
72061;BME280;59925;52.136;5.420;2023-03-22T05:13:37;100783.09;;;8.98;92.20
72061;BME280;59925;52.136;5.420;2023-03-22T05:16:04;100783.34;;;8.97;92.23
72061;BME280;59925;52.136;5.420;2023-03-22T05:18:31;100779.09;;;9.01;92.42
72061;BME280;59925;52.136;5.420;2023-03-22T05:20:59;100783.88;;;8.99;91.96
72061;BME280;59925;52.136;5.420;2023-03-22T05:23:26;100785.22;;;9.01;92.02
72061;BME280;59925;52.136;5.420;2023-03-22T05:25:53;100791.13;;;9.03;91.63
72061;BME280;59925;52.136;5.420;2023-03-22T05:28:20;100786.59;;;9.04;91.68
72061;BME280;59925;52.136;5.420;2023-03-22T05:30:48;100785.50;;;9.00;91.33
72061;BME280;59925;52.136;5.420;2023-03-22T05:33:14;100775.03;;;8.93;91.43
72061;BME280;59925;52.136;5.420;2023-03-22T05:35:47;100770.75;;;8.92;91.41
72061;BME280;59925;52.136;5.420;2023-03-22T05:38:15;100771.81;;;8.91;91.80
72061;BME280;59925;52.136;5.420;2023-03-22T05:40:42;100769.38;;;8.84;91.62
72061;BME280;59925;52.136;5.420;2023-03-22T05:43:09;100776.03;;;8.82;91.61
72061;BME280;59925;52.136;5.420;2023-03-22T05:45:36;100768.03;;;8.82;91.63
72061;BME280;59925;52.136;5.420;2023-03-22T05:48:03;100777.63;;;8.78;91.63
72061;BME280;59925;52.136;5.420;2023-03-22T05:50:30;100769.59;;;8.78;91.84
72061;BME280;59925;52.136;5.420;2023-03-22T05:52:57;100769.34;;;8.79;92.14
72061;BME280;59925;52.136;5.420;2023-03-22T05:55:24;100761.34;;;8.79;91.84
72061;BME280;59925;52.136;5.420;2023-03-22T05:57:51;100761.06;;;8.81;91.96
72061;BME280;59925;52.136;5.420;2023-03-22T06:00:19;100755.72;;;8.81;91.95
72061;BME280;59925;52.136;5.420;2023-03-22T06:02:48;100760.50;;;8.79;91.65
72061;BME280;59925;52.136;5.420;2023-03-22T06:05:15;100761.34;;;8.79;91.95
72061;BME280;59925;52.136;5.420;2023-03-22T06:07:43;100761.56;;;8.78;91.90
72061;BME280;59925;52.136;5.420;2023-03-22T06:10:11;100759.72;;;8.78;91.74
72061;BME280;59925;52.136;5.420;2023-03-22T06:12:38;100758.66;;;8.79;91.89
72061;BME280;59925;52.136;5.420;2023-03-22T06:15:06;100761.63;;;8.83;91.62
72061;BME280;59925;52.136;5.420;2023-03-22T06:17:33;100761.34;;;8.84;91.74
72061;BME280;59925;52.136;5.420;2023-03-22T06:20:01;100754.16;;;8.85;91.51
72061;BME280;59925;52.136;5.420;2023-03-22T06:22:31;100765.91;;;8.89;91.17
72061;BME280;59925;52.136;5.420;2023-03-22T06:24:58;100765.13;;;8.88;91.08
72061;BME280;59925;52.136;5.420;2023-03-22T06:27:26;100765.91;;;8.89;91.02
72061;BME280;59925;52.136;5.420;2023-03-22T06:29:52;100769.13;;;8.91;91.15
72061;BME280;59925;52.136;5.420;2023-03-22T06:32:21;100755.25;;;8.94;90.75
72061;BME280;59925;52.136;5.420;2023-03-22T06:34:52;100763.31;;;9.04;90.65
72061;BME280;59925;52.136;5.420;2023-03-22T06:37:19;100760.44;;;9.22;90.51
72061;BME280;59925;52.136;5.420;2023-03-22T06:39:46;100757.03;;;9.37;89.82
72061;BME280;59925;52.136;5.420;2023-03-22T06:42:12;100752.78;;;9.51;89.47
72061;BME280;59925;52.136;5.420;2023-03-22T06:44:39;100752.25;;;9.54;88.57
72061;BME280;59925;52.136;5.420;2023-03-22T06:47:10;100764.00;;;9.53;88.91
72061;BME280;59925;52.136;5.420;2023-03-22T06:49:37;100759.75;;;9.52;88.09
72061;BME280;59925;52.136;5.420;2023-03-22T06:52:03;100765.09;;;9.57;88.09
72061;BME280;59925;52.136;5.420;2023-03-22T06:54:30;100764.31;;;9.57;88.46
72061;BME280;59925;52.136;5.420;2023-03-22T06:56:57;100764.56;;;9.60;88.06
72061;BME280;59925;52.136;5.420;2023-03-22T06:59:23;100758.16;;;9.66;87.98
72061;BME280;59925;52.136;5.420;2023-03-22T07:01:50;100764.34;;;9.72;87.49
72061;BME280;59925;52.136;5.420;2023-03-22T07:04:16;100764.84;;;9.74;86.89
72061;BME280;59925;52.136;5.420;2023-03-22T07:06:43;100762.72;;;9.76;86.98
72061;BME280;59925;52.136;5.420;2023-03-22T07:09:09;100767.00;;;9.77;86.55
72061;BME280;59925;52.136;5.420;2023-03-22T07:11:35;100755.50;;;9.77;86.14
72061;BME280;59925;52.136;5.420;2023-03-22T07:14:02;100760.03;;;9.76;85.57
72061;BME280;59925;52.136;5.420;2023-03-22T07:16:29;100761.94;;;9.76;85.55
72061;BME280;59925;52.136;5.420;2023-03-22T07:18:55;100771.81;;;9.75;85.78
72061;BME280;59925;52.136;5.420;2023-03-22T07:21:22;100760.88;;;9.77;85.71
72061;BME280;59925;52.136;5.420;2023-03-22T07:23:49;100770.50;;;9.78;85.62
72061;BME280;59925;52.136;5.420;2023-03-22T07:26:15;100765.16;;;9.78;85.56
72061;BME280;59925;52.136;5.420;2023-03-22T07:28:42;100756.06;;;9.79;85.83
72061;BME280;59925;52.136;5.420;2023-03-22T07:31:11;100762.22;;;9.85;85.33
72061;BME280;59925;52.136;5.420;2023-03-22T07:33:38;100757.66;;;9.90;84.66
72061;BME280;59925;52.136;5.420;2023-03-22T07:36:05;100762.22;;;10.00;84.77
72061;BME280;59925;52.136;5.420;2023-03-22T07:38:33;100758.19;;;10.08;84.36
72061;BME280;59925;52.136;5.420;2023-03-22T07:40:59;100760.88;;;10.08;84.21
72061;BME280;59925;52.136;5.420;2023-03-22T07:43:26;100762.75;;;10.12;83.65
72061;BME280;59925;52.136;5.420;2023-03-22T07:45:53;100760.34;;;10.16;83.22
72061;BME280;59925;52.136;5.420;2023-03-22T07:48:20;100761.16;;;10.17;83.46
72061;BME280;59925;52.136;5.420;2023-03-22T07:50:48;100772.41;;;10.19;83.05
72061;BME280;59925;52.136;5.420;2023-03-22T07:53:19;100760.06;;;10.18;82.86
72061;BME280;59925;52.136;5.420;2023-03-22T07:55:46;100767.03;;;10.19;83.22
72061;BME280;59925;52.136;5.420;2023-03-22T07:58:13;100753.38;;;10.20;83.21
72061;BME280;59925;52.136;5.420;2023-03-22T08:00:40;100756.06;;;10.25;83.48
72061;BME280;59925;52.136;5.420;2023-03-22T08:03:08;100754.19;;;10.36;82.82
72061;BME280;59925;52.136;5.420;2023-03-22T08:05:39;100760.34;;;10.52;82.98
72061;BME280;59925;52.136;5.420;2023-03-22T08:08:06;100752.59;;;10.51;81.80
72061;BME280;59925;52.136;5.420;2023-03-22T08:10:33;100761.66;;;10.55;81.93
72061;BME280;59925;52.136;5.420;2023-03-22T08:13:00;100750.41;;;10.58;80.60
72061;BME280;59925;52.136;5.420;2023-03-22T08:15:27;100753.09;;;10.63;81.01
72061;BME280;59925;52.136;5.420;2023-03-22T08:17:55;100748.25;;;10.70;80.95
72061;BME280;59925;52.136;5.420;2023-03-22T08:20:25;100754.13;;;10.72;80.44
72061;BME280;59925;52.136;5.420;2023-03-22T08:22:53;100757.59;;;10.73;80.28
72061;BME280;59925;52.136;5.420;2023-03-22T08:25:20;100749.34;;;10.64;79.90
72061;BME280;59925;52.136;5.420;2023-03-22T08:27:46;100752.28;;;10.63;79.86
72061;BME280;59925;52.136;5.420;2023-03-22T08:30:13;100752.81;;;10.65;80.24
72061;BME280;59925;52.136;5.420;2023-03-22T08:32:40;100752.53;;;10.66;79.62
72061;BME280;59925;52.136;5.420;2023-03-22T08:35:07;100746.91;;;10.68;79.66
72061;BME280;59925;52.136;5.420;2023-03-22T08:37:34;100752.81;;;10.70;79.03
72061;BME280;59925;52.136;5.420;2023-03-22T08:40:01;100754.41;;;10.71;79.48
72061;BME280;59925;52.136;5.420;2023-03-22T08:42:30;100753.59;;;10.76;79.62
72061;BME280;59925;52.136;5.420;2023-03-22T08:44:56;100748.19;;;10.81;79.57
72061;BME280;59925;52.136;5.420;2023-03-22T08:47:22;100752.19;;;10.88;79.30
72061;BME280;59925;52.136;5.420;2023-03-22T08:49:49;100749.78;;;10.92;79.19
72061;BME280;59925;52.136;5.420;2023-03-22T08:52:15;100731.81;;;10.98;78.49
72061;BME280;59925;52.136;5.420;2023-03-22T08:54:42;100751.06;;;11.05;78.18
72061;BME280;59925;52.136;5.420;2023-03-22T08:57:09;100725.56;;;11.08;78.12
72061;BME280;59925;52.136;5.420;2023-03-22T08:59:36;100744.63;;;11.11;77.51
72061;BME280;59925;52.136;5.420;2023-03-22T09:02:02;100736.88;;;11.04;77.84
72061;BME280;59925;52.136;5.420;2023-03-22T09:04:29;100749.22;;;10.95;78.04
72061;BME280;59925;52.136;5.420;2023-03-22T09:06:56;100752.19;;;10.88;77.69
72061;BME280;59925;52.136;5.420;2023-03-22T09:09:22;100735.31;;;10.83;77.20
72061;BME280;59925;52.136;5.420;2023-03-22T09:11:49;100739.88;;;10.87;77.69
72061;BME280;59925;52.136;5.420;2023-03-22T09:14:15;100757.56;;;10.88;77.50
72061;BME280;59925;52.136;5.420;2023-03-22T09:16:42;100750.06;;;10.91;77.68
72061;BME280;59925;52.136;5.420;2023-03-22T09:19:08;100746.84;;;10.94;77.37
72061;BME280;59925;52.136;5.420;2023-03-22T09:21:36;100742.00;;;10.91;77.12
72061;BME280;59925;52.136;5.420;2023-03-22T09:24:02;100750.31;;;10.94;77.56
72061;BME280;59925;52.136;5.420;2023-03-22T09:26:29;100760.50;;;10.97;77.58
72061;BME280;59925;52.136;5.420;2023-03-22T09:28:56;100774.44;;;10.94;77.77
72061;BME280;59925;52.136;5.420;2023-03-22T09:31:22;100752.50;;;10.87;77.95
72061;BME280;59925;52.136;5.420;2023-03-22T09:33:49;100754.91;;;10.83;78.92
72061;BME280;59925;52.136;5.420;2023-03-22T09:36:15;100768.84;;;10.85;78.70
72061;BME280;59925;52.136;5.420;2023-03-22T09:38:42;100752.00;;;10.75;79.18
72061;BME280;59925;52.136;5.420;2023-03-22T09:43:57;100750.13;;;10.65;80.77
72061;BME280;59925;52.136;5.420;2023-03-22T09:46:33;100755.25;;;10.61;81.82
72061;BME280;59925;52.136;5.420;2023-03-22T09:49:06;100771.06;;;10.57;81.94
72061;BME280;59925;52.136;5.420;2023-03-22T09:51:49;100772.13;;;10.51;82.69
72061;BME280;59925;52.136;5.420;2023-03-22T09:54:28;100756.88;;;10.41;83.38
72061;BME280;59925;52.136;5.420;2023-03-22T09:57:38;100749.66;;;10.42;83.96
72061;BME280;59925;52.136;5.420;2023-03-22T10:02:57;100745.59;;;10.19;85.14
72061;BME280;59925;52.136;5.420;2023-03-22T10:05:48;100750.19;;;10.18;85.72
72061;BME280;59925;52.136;5.420;2023-03-22T10:08:35;100751.78;;;10.14;85.70
72061;BME280;59925;52.136;5.420;2023-03-22T10:11:13;100746.66;;;10.12;86.20
72061;BME280;59925;52.136;5.420;2023-03-22T10:14:19;100744.81;;;10.13;86.80
72061;BME280;59925;52.136;5.420;2023-03-22T10:16:51;100744.56;;;10.09;86.84
72061;BME280;59925;52.136;5.420;2023-03-22T10:19:33;100744.56;;;10.09;87.51
72061;BME280;59925;52.136;5.420;2023-03-22T10:22:03;100747.47;;;10.08;87.66
72061;BME280;59925;52.136;5.420;2023-03-22T10:24:37;100746.16;;;10.10;87.59
72061;BME280;59925;52.136;5.420;2023-03-22T10:27:16;100743.72;;;10.09;87.50
72061;BME280;59925;52.136;5.420;2023-03-22T10:29:50;100742.94;;;10.08;87.66
72061;BME280;59925;52.136;5.420;2023-03-22T10:32:25;100758.72;;;10.10;87.77
72061;BME280;59925;52.136;5.420;2023-03-22T10:34:54;100757.94;;;10.09;88.04
72061;BME280;59925;52.136;5.420;2023-03-22T10:37:24;100751.53;;;10.10;88.14
72061;BME280;59925;52.136;5.420;2023-03-22T10:39:55;100751.50;;;10.16;88.60
72061;BME280;59925;52.136;5.420;2023-03-22T10:42:27;100755.78;;;10.17;88.26
72061;BME280;59925;52.136;5.420;2023-03-22T10:45:02;100757.13;;;10.14;88.15
72061;BME280;59925;52.136;5.420;2023-03-22T10:47:39;100764.63;;;10.12;88.58
72061;BME280;59925;52.136;5.420;2023-03-22T10:50:16;100760.06;;;10.12;88.21
72061;BME280;59925;52.136;5.420;2023-03-22T10:52:55;100759.56;;;10.10;88.51
72061;BME280;59925;52.136;5.420;2023-03-22T10:55:24;100742.41;;;10.11;88.57
72061;BME280;59925;52.136;5.420;2023-03-22T11:00:37;100749.09;;;10.14;89.14
72061;BME280;59925;52.136;5.420;2023-03-22T11:03:36;100748.56;;;10.17;88.98
72061;BME280;59925;52.136;5.420;2023-03-22T11:06:19;100740.53;;;10.17;88.86
72061;BME280;59925;52.136;5.420;2023-03-22T11:09:01;100737.31;;;10.15;88.84
72061;BME280;59925;52.136;5.420;2023-03-22T11:11:57;100728.72;;;10.23;89.11
72061;BME280;59925;52.136;5.420;2023-03-22T11:14:35;100723.34;;;10.34;89.26
72061;BME280;59925;52.136;5.420;2023-03-22T11:21:59;100734.34;;;10.42;88.79
72061;BME280;59925;52.136;5.420;2023-03-22T11:24:29;100734.34;;;10.42;88.50
72061;BME280;59925;52.136;5.420;2023-03-22T11:29:39;100730.59;;;10.43;87.55
72061;BME280;59925;52.136;5.420;2023-03-22T11:35:11;100736.75;;;10.49;87.59
72061;BME280;59925;52.136;5.420;2023-03-22T11:37:51;100725.50;;;10.47;87.61
72061;BME280;59925;52.136;5.420;2023-03-22T11:40:28;100719.31;;;10.57;87.55
72061;BME280;59925;52.136;5.420;2023-03-22T11:43:15;100736.75;;;10.54;87.26
72061;BME280;59925;52.136;5.420;2023-03-22T11:45:43;100733.00;;;10.55;86.79
72061;BME280;59925;52.136;5.420;2023-03-22T11:48:20;100735.69;;;10.55;86.98
72061;BME280;59925;52.136;5.420;2023-03-22T11:50:54;100734.63;;;10.56;86.22
72061;BME280;59925;52.136;5.420;2023-03-22T11:53:25;100731.41;;;10.54;86.65
72061;BME280;59925;52.136;5.420;2023-03-22T11:55:54;100741.31;;;10.54;86.49
72061;BME280;59925;52.136;5.420;2023-03-22T11:58:58;100745.59;;;10.55;86.88
72061;BME280;59925;52.136;5.420;2023-03-22T12:01:34;100750.41;;;10.53;86.32
72061;BME280;59925;52.136;5.420;2023-03-22T12:04:06;100753.66;;;10.50;86.45
72061;BME280;59925;52.136;5.420;2023-03-22T12:06:37;100755.81;;;10.48;86.36
72061;BME280;59925;52.136;5.420;2023-03-22T12:11:46;100746.94;;;10.52;86.78
72061;BME280;59925;52.136;5.420;2023-03-22T12:17:29;100738.38;;;10.55;86.21
72061;BME280;59925;52.136;5.420;2023-03-22T12:20:03;100748.56;;;10.58;86.20
72061;BME280;59925;52.136;5.420;2023-03-22T12:22:34;100744.50;;;10.61;86.25
72061;BME280;59925;52.136;5.420;2023-03-22T12:25:05;100752.28;;;10.63;85.75
72061;BME280;59925;52.136;5.420;2023-03-22T12:27:39;100746.38;;;10.66;85.76
72061;BME280;59925;52.136;5.420;2023-03-22T12:30:13;100743.41;;;10.67;85.80
72061;BME280;59925;52.136;5.420;2023-03-22T12:32:50;100732.69;;;10.67;85.66
72061;BME280;59925;52.136;5.420;2023-03-22T12:35:21;100742.09;;;10.70;86.26
72061;BME280;59925;52.136;5.420;2023-03-22T12:37:53;100744.47;;;10.71;85.80
72061;BME280;59925;52.136;5.420;2023-03-22T12:40:44;100750.63;;;10.72;85.86
72061;BME280;59925;52.136;5.420;2023-03-22T12:43:14;100741.25;;;10.69;85.48
72061;BME280;59925;52.136;5.420;2023-03-22T12:45:47;100731.06;;;10.71;85.25
72061;BME280;59925;52.136;5.420;2023-03-22T12:48:18;100737.75;;;10.74;85.36
72061;BME280;59925;52.136;5.420;2023-03-22T12:50:54;100741.25;;;10.75;85.26
72061;BME280;59925;52.136;5.420;2023-03-22T12:53:27;100731.31;;;10.75;85.69
72061;BME280;59925;52.136;5.420;2023-03-22T12:55:56;100723.56;;;10.73;85.44
72061;BME280;59925;52.136;5.420;2023-03-22T12:58:24;100730.53;;;10.75;85.28
72061;BME280;59925;52.136;5.420;2023-03-22T13:00:54;100726.78;;;10.76;85.46
72061;BME280;59925;52.136;5.420;2023-03-22T13:03:26;100728.09;;;10.78;85.11
72061;BME280;59925;52.136;5.420;2023-03-22T13:06:00;100728.13;;;10.73;85.85
72061;BME280;59925;52.136;5.420;2023-03-22T13:11:34;100736.69;;;10.75;85.61
72061;BME280;59925;52.136;5.420;2023-03-22T13:14:01;100738.56;;;10.80;85.45
72061;BME280;59925;52.136;5.420;2023-03-22T13:16:57;100738.31;;;10.76;85.68
72061;BME280;59925;52.136;5.420;2023-03-22T13:19:35;100737.75;;;10.74;85.75
72061;BME280;59925;52.136;5.420;2023-03-22T13:22:13;100740.44;;;10.74;85.77
72061;BME280;59925;52.136;5.420;2023-03-22T13:30:16;100740.72;;;10.78;85.80
72061;BME280;59925;52.136;5.420;2023-03-22T13:32:50;100734.53;;;10.77;85.40
72061;BME280;59925;52.136;5.420;2023-03-22T13:35:43;100732.13;;;10.81;85.51
72061;BME280;59925;52.136;5.420;2023-03-22T13:38:29;100718.44;;;10.82;85.58
72061;BME280;59925;52.136;5.420;2023-03-22T13:41:00;100731.81;;;10.87;85.66
72061;BME280;59925;52.136;5.420;2023-03-22T13:43:33;100735.56;;;10.86;85.54
72061;BME280;59925;52.136;5.420;2023-03-22T13:54:15;100729.19;;;10.82;86.72
72061;BME280;59925;52.136;5.420;2023-03-22T14:01:55;100716.00;;;10.86;87.17
72061;BME280;59925;52.136;5.420;2023-03-22T14:04:29;100720.03;;;10.88;87.25
72061;BME280;59925;52.136;5.420;2023-03-22T14:07:07;100721.09;;;10.87;87.00
72061;BME280;59925;52.136;5.420;2023-03-22T14:10:04;100716.56;;;10.88;87.91
72061;BME280;59925;52.136;5.420;2023-03-22T14:15:41;100714.13;;;10.92;87.55
72061;BME280;59925;52.136;5.420;2023-03-22T14:18:22;100707.38;;;10.94;87.71
72061;BME280;59925;52.136;5.420;2023-03-22T14:21:22;100698.81;;;10.97;87.67
72061;BME280;59925;52.136;5.420;2023-03-22T14:23:53;100704.69;;;10.99;87.52
72061;BME280;59925;52.136;5.420;2023-03-22T14:26:24;100692.88;;;11.00;87.50
72061;BME280;59925;52.136;5.420;2023-03-22T14:28:51;100687.78;;;10.99;87.69
72061;BME280;59925;52.136;5.420;2023-03-22T14:31:26;100686.72;;;11.00;88.15
72061;BME280;59925;52.136;5.420;2023-03-22T14:33:54;100682.94;;;11.06;88.55
72061;BME280;59925;52.136;5.420;2023-03-22T14:36:21;100673.53;;;11.09;88.41
72061;BME280;59925;52.136;5.420;2023-03-22T14:38:48;100669.75;;;11.15;88.57
72061;BME280;59925;52.136;5.420;2023-03-22T14:41:19;100685.03;;;11.14;88.78
72061;BME280;59925;52.136;5.420;2023-03-22T14:43:47;100685.34;;;11.08;89.03
72061;BME280;59925;52.136;5.420;2023-03-22T14:46:23;100680.78;;;11.08;89.24
72061;BME280;59925;52.136;5.420;2023-03-22T14:48:55;100672.19;;;11.11;89.15